sensor_id;sensor_type;location;lat;lon;timestamp;P1;durP1;ratioP1;P2;durP2;ratioP2
57313;SDS011;53202;50.976;18.216;2023-12-14T00:00:57;103.10;;;52.80;;
57313;SDS011;53202;50.976;18.216;2023-12-14T00:01:58;109.00;;;53.00;;
57313;SDS011;53202;50.976;18.216;2023-12-14T00:02:59;109.10;;;52.00;;
57313;SDS011;53202;50.976;18.216;2023-12-14T00:04:00;106.20;;;52.30;;
57313;SDS011;53202;50.976;18.216;2023-12-14T00:05:03;117.10;;;52.00;;
57313;SDS011;53202;50.976;18.216;2023-12-14T00:06:04;117.60;;;51.40;;
57313;SDS011;53202;50.976;18.216;2023-12-14T00:07:05;122.60;;;54.10;;
57313;SDS011;53202;50.976;18.216;2023-12-14T00:08:06;125.20;;;55.80;;
57313;SDS011;53202;50.976;18.216;2023-12-14T00:09:09;122.90;;;54.50;;
57313;SDS011;53202;50.976;18.216;2023-12-14T00:10:10;123.40;;;51.50;;
57313;SDS011;53202;50.976;18.216;2023-12-14T00:11:12;121.50;;;53.60;;
57313;SDS011;53202;50.976;18.216;2023-12-14T00:12:14;127.80;;;52.00;;
57313;SDS011;53202;50.976;18.216;2023-12-14T00:13:14;117.90;;;54.00;;
57313;SDS011;53202;50.976;18.216;2023-12-14T00:14:15;119.00;;;51.90;;
57313;SDS011;53202;50.976;18.216;2023-12-14T00:15:16;120.20;;;50.50;;
57313;SDS011;53202;50.976;18.216;2023-12-14T00:16:18;122.10;;;52.10;;
57313;SDS011;53202;50.976;18.216;2023-12-14T00:17:19;119.10;;;52.60;;
57313;SDS011;53202;50.976;18.216;2023-12-14T00:18:21;125.70;;;54.60;;
57313;SDS011;53202;50.976;18.216;2023-12-14T00:19:23;130.90;;;55.50;;
57313;SDS011;53202;50.976;18.216;2023-12-14T00:20:24;125.60;;;53.50;;
57313;SDS011;53202;50.976;18.216;2023-12-14T00:21:26;119.60;;;52.90;;
57313;SDS011;53202;50.976;18.216;2023-12-14T00:22:27;117.90;;;51.60;;
57313;SDS011;53202;50.976;18.216;2023-12-14T00:23:28;120.80;;;51.70;;
57313;SDS011;53202;50.976;18.216;2023-12-14T00:24:29;114.00;;;49.20;;
57313;SDS011;53202;50.976;18.216;2023-12-14T00:25:30;118.50;;;53.60;;
57313;SDS011;53202;50.976;18.216;2023-12-14T00:26:30;104.70;;;47.40;;
57313;SDS011;53202;50.976;18.216;2023-12-14T00:27:31;106.70;;;48.70;;
57313;SDS011;53202;50.976;18.216;2023-12-14T00:28:32;116.70;;;51.70;;
57313;SDS011;53202;50.976;18.216;2023-12-14T00:29:33;112.50;;;49.40;;
57313;SDS011;53202;50.976;18.216;2023-12-14T00:30:35;109.60;;;49.80;;
57313;SDS011;53202;50.976;18.216;2023-12-14T00:31:36;105.70;;;47.40;;
57313;SDS011;53202;50.976;18.216;2023-12-14T00:32:37;102.60;;;48.70;;
57313;SDS011;53202;50.976;18.216;2023-12-14T00:33:38;121.90;;;51.30;;
57313;SDS011;53202;50.976;18.216;2023-12-14T00:34:39;116.30;;;48.10;;
57313;SDS011;53202;50.976;18.216;2023-12-14T00:35:40;113.80;;;49.20;;
57313;SDS011;53202;50.976;18.216;2023-12-14T00:36:41;110.90;;;50.60;;
57313;SDS011;53202;50.976;18.216;2023-12-14T00:37:43;92.10;;;45.40;;
57313;SDS011;53202;50.976;18.216;2023-12-14T00:38:44;111.50;;;47.60;;
57313;SDS011;53202;50.976;18.216;2023-12-14T00:39:45;109.50;;;47.00;;
57313;SDS011;53202;50.976;18.216;2023-12-14T00:40:46;96.40;;;46.10;;
57313;SDS011;53202;50.976;18.216;2023-12-14T00:41:47;98.80;;;45.90;;
57313;SDS011;53202;50.976;18.216;2023-12-14T00:42:48;110.10;;;48.50;;
57313;SDS011;53202;50.976;18.216;2023-12-14T00:43:49;105.50;;;47.60;;
57313;SDS011;53202;50.976;18.216;2023-12-14T00:44:50;104.90;;;49.20;;
57313;SDS011;53202;50.976;18.216;2023-12-14T00:45:51;111.70;;;49.60;;
57313;SDS011;53202;50.976;18.216;2023-12-14T00:46:53;92.50;;;45.90;;
57313;SDS011;53202;50.976;18.216;2023-12-14T00:47:53;115.70;;;50.40;;
57313;SDS011;53202;50.976;18.216;2023-12-14T00:48:55;97.70;;;47.40;;
57313;SDS011;53202;50.976;18.216;2023-12-14T00:50:24;106.10;;;50.60;;
57313;SDS011;53202;50.976;18.216;2023-12-14T00:51:26;97.40;;;48.60;;
57313;SDS011;53202;50.976;18.216;2023-12-14T00:52:27;101.80;;;50.30;;
57313;SDS011;53202;50.976;18.216;2023-12-14T00:53:28;99.70;;;48.50;;
57313;SDS011;53202;50.976;18.216;2023-12-14T00:54:29;111.50;;;50.10;;
57313;SDS011;53202;50.976;18.216;2023-12-14T00:55:30;110.00;;;50.10;;
57313;SDS011;53202;50.976;18.216;2023-12-14T00:56:31;104.60;;;51.90;;
57313;SDS011;53202;50.976;18.216;2023-12-14T00:57:32;101.90;;;49.50;;
57313;SDS011;53202;50.976;18.216;2023-12-14T00:58:33;109.50;;;51.70;;
57313;SDS011;53202;50.976;18.216;2023-12-14T00:59:34;89.90;;;48.80;;
57313;SDS011;53202;50.976;18.216;2023-12-14T01:00:35;116.80;;;54.20;;
57313;SDS011;53202;50.976;18.216;2023-12-14T01:01:36;108.30;;;51.20;;
57313;SDS011;53202;50.976;18.216;2023-12-14T01:02:37;109.00;;;50.70;;
57313;SDS011;53202;50.976;18.216;2023-12-14T01:03:38;94.60;;;46.80;;
57313;SDS011;53202;50.976;18.216;2023-12-14T01:04:39;96.20;;;48.40;;
57313;SDS011;53202;50.976;18.216;2023-12-14T01:05:40;104.10;;;50.40;;
57313;SDS011;53202;50.976;18.216;2023-12-14T01:06:41;106.80;;;50.50;;
57313;SDS011;53202;50.976;18.216;2023-12-14T01:07:42;113.40;;;49.30;;
57313;SDS011;53202;50.976;18.216;2023-12-14T01:08:43;105.70;;;50.10;;
57313;SDS011;53202;50.976;18.216;2023-12-14T01:09:44;96.40;;;47.00;;
57313;SDS011;53202;50.976;18.216;2023-12-14T01:10:45;116.30;;;52.90;;
57313;SDS011;53202;50.976;18.216;2023-12-14T01:11:46;108.60;;;50.90;;
57313;SDS011;53202;50.976;18.216;2023-12-14T01:12:47;111.20;;;53.30;;
57313;SDS011;53202;50.976;18.216;2023-12-14T01:13:48;111.20;;;51.70;;
57313;SDS011;53202;50.976;18.216;2023-12-14T01:14:49;116.00;;;52.70;;
57313;SDS011;53202;50.976;18.216;2023-12-14T01:15:50;103.00;;;49.50;;
57313;SDS011;53202;50.976;18.216;2023-12-14T01:16:51;99.70;;;46.10;;
57313;SDS011;53202;50.976;18.216;2023-12-14T01:17:52;100.90;;;46.30;;
57313;SDS011;53202;50.976;18.216;2023-12-14T01:18:53;104.20;;;49.60;;
57313;SDS011;53202;50.976;18.216;2023-12-14T01:19:54;106.00;;;46.40;;
57313;SDS011;53202;50.976;18.216;2023-12-14T01:20:55;95.80;;;44.60;;
57313;SDS011;53202;50.976;18.216;2023-12-14T01:21:56;93.90;;;46.70;;
57313;SDS011;53202;50.976;18.216;2023-12-14T01:22:58;94.40;;;43.90;;
57313;SDS011;53202;50.976;18.216;2023-12-14T01:23:59;94.50;;;46.40;;
57313;SDS011;53202;50.976;18.216;2023-12-14T01:25:01;100.20;;;46.70;;
57313;SDS011;53202;50.976;18.216;2023-12-14T01:26:02;92.50;;;43.80;;
57313;SDS011;53202;50.976;18.216;2023-12-14T01:27:03;88.10;;;44.00;;
57313;SDS011;53202;50.976;18.216;2023-12-14T01:28:04;100.20;;;47.50;;
57313;SDS011;53202;50.976;18.216;2023-12-14T01:29:05;88.20;;;43.30;;
57313;SDS011;53202;50.976;18.216;2023-12-14T01:30:06;105.40;;;49.00;;
57313;SDS011;53202;50.976;18.216;2023-12-14T01:31:08;95.50;;;43.70;;
57313;SDS011;53202;50.976;18.216;2023-12-14T01:32:09;108.00;;;46.80;;
57313;SDS011;53202;50.976;18.216;2023-12-14T01:33:10;99.30;;;46.10;;
57313;SDS011;53202;50.976;18.216;2023-12-14T01:34:11;97.00;;;44.60;;
57313;SDS011;53202;50.976;18.216;2023-12-14T01:35:12;98.10;;;41.00;;
57313;SDS011;53202;50.976;18.216;2023-12-14T01:36:19;97.40;;;45.70;;
57313;SDS011;53202;50.976;18.216;2023-12-14T01:37:21;108.10;;;45.70;;
57313;SDS011;53202;50.976;18.216;2023-12-14T01:38:22;97.60;;;47.10;;
57313;SDS011;53202;50.976;18.216;2023-12-14T01:39:23;102.30;;;46.10;;
57313;SDS011;53202;50.976;18.216;2023-12-14T01:40:24;116.20;;;48.60;;
57313;SDS011;53202;50.976;18.216;2023-12-14T01:41:25;114.20;;;47.00;;
57313;SDS011;53202;50.976;18.216;2023-12-14T01:42:26;103.00;;;47.50;;
57313;SDS011;53202;50.976;18.216;2023-12-14T01:43:28;102.30;;;47.00;;
57313;SDS011;53202;50.976;18.216;2023-12-14T01:44:29;98.30;;;46.50;;
57313;SDS011;53202;50.976;18.216;2023-12-14T01:45:30;117.60;;;46.40;;
57313;SDS011;53202;50.976;18.216;2023-12-14T01:46:31;106.20;;;47.90;;
57313;SDS011;53202;50.976;18.216;2023-12-14T01:47:32;100.70;;;46.10;;
57313;SDS011;53202;50.976;18.216;2023-12-14T01:48:33;101.10;;;48.50;;
57313;SDS011;53202;50.976;18.216;2023-12-14T01:49:34;103.20;;;49.00;;
57313;SDS011;53202;50.976;18.216;2023-12-14T01:50:35;111.50;;;49.50;;
57313;SDS011;53202;50.976;18.216;2023-12-14T01:51:36;110.90;;;51.80;;
57313;SDS011;53202;50.976;18.216;2023-12-14T01:52:37;112.90;;;48.50;;
57313;SDS011;53202;50.976;18.216;2023-12-14T01:53:38;93.00;;;45.90;;
57313;SDS011;53202;50.976;18.216;2023-12-14T01:54:41;108.60;;;48.00;;
57313;SDS011;53202;50.976;18.216;2023-12-14T01:55:41;106.30;;;48.00;;
57313;SDS011;53202;50.976;18.216;2023-12-14T01:56:42;109.90;;;49.10;;
57313;SDS011;53202;50.976;18.216;2023-12-14T01:57:43;115.60;;;49.90;;
57313;SDS011;53202;50.976;18.216;2023-12-14T01:58:44;132.70;;;59.10;;
57313;SDS011;53202;50.976;18.216;2023-12-14T01:59:45;128.00;;;59.80;;
57313;SDS011;53202;50.976;18.216;2023-12-14T02:00:56;138.30;;;62.50;;
57313;SDS011;53202;50.976;18.216;2023-12-14T02:02:03;139.50;;;61.70;;
57313;SDS011;53202;50.976;18.216;2023-12-14T02:03:06;143.40;;;62.60;;
57313;SDS011;53202;50.976;18.216;2023-12-14T02:04:07;152.40;;;63.30;;
57313;SDS011;53202;50.976;18.216;2023-12-14T02:05:08;148.30;;;66.40;;
57313;SDS011;53202;50.976;18.216;2023-12-14T02:06:09;159.30;;;66.10;;
57313;SDS011;53202;50.976;18.216;2023-12-14T02:07:10;152.50;;;62.80;;
57313;SDS011;53202;50.976;18.216;2023-12-14T02:08:11;146.70;;;64.80;;
57313;SDS011;53202;50.976;18.216;2023-12-14T02:09:12;133.90;;;59.80;;
57313;SDS011;53202;50.976;18.216;2023-12-14T02:10:13;150.00;;;61.00;;
57313;SDS011;53202;50.976;18.216;2023-12-14T02:11:14;131.10;;;57.60;;
57313;SDS011;53202;50.976;18.216;2023-12-14T02:12:15;169.30;;;61.00;;
57313;SDS011;53202;50.976;18.216;2023-12-14T02:13:17;141.10;;;57.20;;
57313;SDS011;53202;50.976;18.216;2023-12-14T02:14:18;129.40;;;55.50;;
57313;SDS011;53202;50.976;18.216;2023-12-14T02:15:22;130.20;;;51.90;;
57313;SDS011;53202;50.976;18.216;2023-12-14T02:16:23;133.20;;;56.30;;
57313;SDS011;53202;50.976;18.216;2023-12-14T02:17:24;137.20;;;56.00;;
57313;SDS011;53202;50.976;18.216;2023-12-14T02:18:25;130.60;;;55.20;;
57313;SDS011;53202;50.976;18.216;2023-12-14T02:19:26;126.10;;;50.50;;
57313;SDS011;53202;50.976;18.216;2023-12-14T02:20:27;125.90;;;52.70;;
57313;SDS011;53202;50.976;18.216;2023-12-14T02:21:28;131.10;;;53.80;;
57313;SDS011;53202;50.976;18.216;2023-12-14T02:22:33;125.20;;;54.10;;
57313;SDS011;53202;50.976;18.216;2023-12-14T02:23:52;126.00;;;53.20;;
57313;SDS011;53202;50.976;18.216;2023-12-14T02:24:53;121.90;;;52.30;;
57313;SDS011;53202;50.976;18.216;2023-12-14T02:25:54;130.80;;;54.50;;
57313;SDS011;53202;50.976;18.216;2023-12-14T02:26:56;128.40;;;53.90;;
57313;SDS011;53202;50.976;18.216;2023-12-14T02:27:58;116.70;;;54.30;;
57313;SDS011;53202;50.976;18.216;2023-12-14T02:28:58;123.40;;;51.50;;
57313;SDS011;53202;50.976;18.216;2023-12-14T02:30:00;127.00;;;54.20;;
57313;SDS011;53202;50.976;18.216;2023-12-14T02:31:01;167.80;;;70.70;;
57313;SDS011;53202;50.976;18.216;2023-12-14T02:32:02;166.30;;;68.80;;
57313;SDS011;53202;50.976;18.216;2023-12-14T02:33:03;142.60;;;60.00;;
57313;SDS011;53202;50.976;18.216;2023-12-14T02:34:04;143.10;;;59.70;;
57313;SDS011;53202;50.976;18.216;2023-12-14T02:35:05;146.70;;;58.40;;
57313;SDS011;53202;50.976;18.216;2023-12-14T02:36:07;144.20;;;60.40;;
57313;SDS011;53202;50.976;18.216;2023-12-14T02:37:08;147.40;;;57.70;;
57313;SDS011;53202;50.976;18.216;2023-12-14T02:38:09;136.10;;;54.20;;
57313;SDS011;53202;50.976;18.216;2023-12-14T02:39:10;149.70;;;60.90;;
57313;SDS011;53202;50.976;18.216;2023-12-14T02:40:11;160.60;;;64.90;;
57313;SDS011;53202;50.976;18.216;2023-12-14T02:41:12;158.30;;;64.10;;
57313;SDS011;53202;50.976;18.216;2023-12-14T02:42:13;132.10;;;57.20;;
57313;SDS011;53202;50.976;18.216;2023-12-14T02:43:14;140.40;;;57.70;;
57313;SDS011;53202;50.976;18.216;2023-12-14T02:44:15;124.40;;;54.00;;
57313;SDS011;53202;50.976;18.216;2023-12-14T02:45:16;136.60;;;58.40;;
57313;SDS011;53202;50.976;18.216;2023-12-14T02:46:17;148.90;;;58.80;;
57313;SDS011;53202;50.976;18.216;2023-12-14T02:47:18;141.00;;;56.50;;
57313;SDS011;53202;50.976;18.216;2023-12-14T02:48:19;132.70;;;55.40;;
57313;SDS011;53202;50.976;18.216;2023-12-14T02:49:20;129.00;;;58.00;;
57313;SDS011;53202;50.976;18.216;2023-12-14T02:50:22;143.40;;;56.00;;
57313;SDS011;53202;50.976;18.216;2023-12-14T02:51:23;156.70;;;59.80;;
57313;SDS011;53202;50.976;18.216;2023-12-14T02:52:24;131.70;;;56.10;;
57313;SDS011;53202;50.976;18.216;2023-12-14T02:53:25;142.20;;;55.90;;
57313;SDS011;53202;50.976;18.216;2023-12-14T02:54:26;132.60;;;56.30;;
57313;SDS011;53202;50.976;18.216;2023-12-14T02:55:27;147.30;;;59.60;;
57313;SDS011;53202;50.976;18.216;2023-12-14T02:56:28;145.60;;;59.30;;
57313;SDS011;53202;50.976;18.216;2023-12-14T02:57:29;148.60;;;63.20;;
57313;SDS011;53202;50.976;18.216;2023-12-14T02:58:30;147.60;;;59.50;;
57313;SDS011;53202;50.976;18.216;2023-12-14T02:59:31;143.40;;;58.50;;
57313;SDS011;53202;50.976;18.216;2023-12-14T03:00:32;159.50;;;59.00;;
57313;SDS011;53202;50.976;18.216;2023-12-14T03:01:33;158.20;;;61.40;;
57313;SDS011;53202;50.976;18.216;2023-12-14T03:02:34;167.60;;;60.00;;
57313;SDS011;53202;50.976;18.216;2023-12-14T03:03:38;161.90;;;62.40;;
57313;SDS011;53202;50.976;18.216;2023-12-14T03:04:40;157.00;;;61.00;;
57313;SDS011;53202;50.976;18.216;2023-12-14T03:05:41;152.10;;;61.90;;
57313;SDS011;53202;50.976;18.216;2023-12-14T03:06:42;161.90;;;62.20;;
57313;SDS011;53202;50.976;18.216;2023-12-14T03:07:43;150.20;;;58.80;;
57313;SDS011;53202;50.976;18.216;2023-12-14T03:08:44;181.20;;;64.00;;
57313;SDS011;53202;50.976;18.216;2023-12-14T03:09:45;151.80;;;59.50;;
57313;SDS011;53202;50.976;18.216;2023-12-14T03:10:46;161.00;;;61.30;;
57313;SDS011;53202;50.976;18.216;2023-12-14T03:11:47;174.40;;;63.60;;
57313;SDS011;53202;50.976;18.216;2023-12-14T03:12:49;187.90;;;63.30;;
57313;SDS011;53202;50.976;18.216;2023-12-14T03:13:50;163.80;;;63.30;;
57313;SDS011;53202;50.976;18.216;2023-12-14T03:14:51;182.40;;;66.10;;
57313;SDS011;53202;50.976;18.216;2023-12-14T03:15:52;189.80;;;63.90;;
57313;SDS011;53202;50.976;18.216;2023-12-14T03:16:53;181.30;;;63.60;;
57313;SDS011;53202;50.976;18.216;2023-12-14T03:17:54;186.90;;;66.10;;
57313;SDS011;53202;50.976;18.216;2023-12-14T03:18:55;183.10;;;64.00;;
57313;SDS011;53202;50.976;18.216;2023-12-14T03:19:57;201.10;;;63.00;;
57313;SDS011;53202;50.976;18.216;2023-12-14T03:20:58;193.30;;;63.40;;
57313;SDS011;53202;50.976;18.216;2023-12-14T03:21:59;195.50;;;63.20;;
57313;SDS011;53202;50.976;18.216;2023-12-14T03:22:59;170.90;;;56.30;;
57313;SDS011;53202;50.976;18.216;2023-12-14T03:24:00;177.40;;;62.10;;
57313;SDS011;53202;50.976;18.216;2023-12-14T03:25:01;180.20;;;63.00;;
57313;SDS011;53202;50.976;18.216;2023-12-14T03:26:04;201.50;;;64.60;;
57313;SDS011;53202;50.976;18.216;2023-12-14T03:27:05;174.80;;;64.80;;
57313;SDS011;53202;50.976;18.216;2023-12-14T03:28:06;192.60;;;64.00;;
57313;SDS011;53202;50.976;18.216;2023-12-14T03:29:07;199.40;;;64.00;;
57313;SDS011;53202;50.976;18.216;2023-12-14T03:30:08;211.10;;;65.20;;
57313;SDS011;53202;50.976;18.216;2023-12-14T03:31:10;192.30;;;63.70;;
57313;SDS011;53202;50.976;18.216;2023-12-14T03:32:12;194.20;;;64.00;;
57313;SDS011;53202;50.976;18.216;2023-12-14T03:33:14;225.50;;;63.60;;
57313;SDS011;53202;50.976;18.216;2023-12-14T03:34:15;201.30;;;61.70;;
57313;SDS011;53202;50.976;18.216;2023-12-14T03:35:17;203.50;;;65.00;;
57313;SDS011;53202;50.976;18.216;2023-12-14T03:36:18;215.30;;;64.60;;
57313;SDS011;53202;50.976;18.216;2023-12-14T03:37:19;220.20;;;65.60;;
57313;SDS011;53202;50.976;18.216;2023-12-14T03:38:20;212.40;;;64.30;;
57313;SDS011;53202;50.976;18.216;2023-12-14T03:39:21;223.50;;;64.20;;
57313;SDS011;53202;50.976;18.216;2023-12-14T03:40:22;229.90;;;65.50;;
57313;SDS011;53202;50.976;18.216;2023-12-14T03:41:23;204.10;;;62.50;;
57313;SDS011;53202;50.976;18.216;2023-12-14T03:42:24;204.50;;;61.50;;
57313;SDS011;53202;50.976;18.216;2023-12-14T03:43:25;223.30;;;61.80;;
57313;SDS011;53202;50.976;18.216;2023-12-14T03:44:26;214.50;;;64.00;;
57313;SDS011;53202;50.976;18.216;2023-12-14T03:45:27;192.10;;;58.30;;
57313;SDS011;53202;50.976;18.216;2023-12-14T03:46:28;206.10;;;61.50;;
57313;SDS011;53202;50.976;18.216;2023-12-14T03:47:30;178.60;;;60.00;;
57313;SDS011;53202;50.976;18.216;2023-12-14T03:48:31;204.70;;;64.20;;
57313;SDS011;53202;50.976;18.216;2023-12-14T03:49:36;186.60;;;60.80;;
57313;SDS011;53202;50.976;18.216;2023-12-14T03:50:38;201.50;;;60.30;;
57313;SDS011;53202;50.976;18.216;2023-12-14T03:51:40;204.90;;;59.90;;
57313;SDS011;53202;50.976;18.216;2023-12-14T03:52:40;197.40;;;59.30;;
57313;SDS011;53202;50.976;18.216;2023-12-14T03:53:41;217.40;;;59.70;;
57313;SDS011;53202;50.976;18.216;2023-12-14T03:54:42;197.90;;;59.60;;
57313;SDS011;53202;50.976;18.216;2023-12-14T03:55:43;186.40;;;59.80;;
57313;SDS011;53202;50.976;18.216;2023-12-14T03:56:44;192.50;;;61.10;;
57313;SDS011;53202;50.976;18.216;2023-12-14T03:57:46;223.80;;;66.30;;
57313;SDS011;53202;50.976;18.216;2023-12-14T03:58:47;211.00;;;60.00;;
57313;SDS011;53202;50.976;18.216;2023-12-14T03:59:48;205.20;;;62.10;;
57313;SDS011;53202;50.976;18.216;2023-12-14T04:00:49;191.10;;;60.90;;
57313;SDS011;53202;50.976;18.216;2023-12-14T04:01:50;197.00;;;61.50;;
57313;SDS011;53202;50.976;18.216;2023-12-14T04:02:51;203.60;;;61.80;;
57313;SDS011;53202;50.976;18.216;2023-12-14T04:03:52;197.70;;;62.10;;
57313;SDS011;53202;50.976;18.216;2023-12-14T04:04:53;190.40;;;59.20;;
57313;SDS011;53202;50.976;18.216;2023-12-14T04:05:54;198.10;;;60.60;;
57313;SDS011;53202;50.976;18.216;2023-12-14T04:06:55;209.50;;;63.90;;
57313;SDS011;53202;50.976;18.216;2023-12-14T04:07:56;202.70;;;59.70;;
57313;SDS011;53202;50.976;18.216;2023-12-14T04:08:57;213.90;;;62.40;;
57313;SDS011;53202;50.976;18.216;2023-12-14T04:09:58;214.10;;;64.20;;
57313;SDS011;53202;50.976;18.216;2023-12-14T04:10:59;204.10;;;64.00;;
57313;SDS011;53202;50.976;18.216;2023-12-14T04:12:00;195.40;;;61.70;;
57313;SDS011;53202;50.976;18.216;2023-12-14T04:13:01;208.00;;;60.50;;
57313;SDS011;53202;50.976;18.216;2023-12-14T04:14:02;209.30;;;65.00;;
57313;SDS011;53202;50.976;18.216;2023-12-14T04:15:04;195.50;;;60.60;;
57313;SDS011;53202;50.976;18.216;2023-12-14T04:16:06;181.80;;;61.30;;
57313;SDS011;53202;50.976;18.216;2023-12-14T04:17:08;191.90;;;61.50;;
57313;SDS011;53202;50.976;18.216;2023-12-14T04:18:09;188.60;;;61.50;;
57313;SDS011;53202;50.976;18.216;2023-12-14T04:19:10;200.30;;;59.80;;
57313;SDS011;53202;50.976;18.216;2023-12-14T04:20:12;191.00;;;63.00;;
57313;SDS011;53202;50.976;18.216;2023-12-14T04:21:16;194.20;;;61.90;;
57313;SDS011;53202;50.976;18.216;2023-12-14T04:22:17;193.70;;;62.00;;
57313;SDS011;53202;50.976;18.216;2023-12-14T04:23:18;194.50;;;59.10;;
57313;SDS011;53202;50.976;18.216;2023-12-14T04:24:19;189.40;;;61.40;;
57313;SDS011;53202;50.976;18.216;2023-12-14T04:25:20;191.00;;;61.70;;
57313;SDS011;53202;50.976;18.216;2023-12-14T04:26:21;195.00;;;63.10;;
57313;SDS011;53202;50.976;18.216;2023-12-14T04:27:22;173.60;;;58.80;;
57313;SDS011;53202;50.976;18.216;2023-12-14T04:28:28;177.00;;;61.10;;
57313;SDS011;53202;50.976;18.216;2023-12-14T04:29:29;196.30;;;60.10;;
57313;SDS011;53202;50.976;18.216;2023-12-14T04:30:30;198.90;;;64.20;;
57313;SDS011;53202;50.976;18.216;2023-12-14T04:31:31;189.60;;;63.00;;
57313;SDS011;53202;50.976;18.216;2023-12-14T04:32:32;177.00;;;57.50;;
57313;SDS011;53202;50.976;18.216;2023-12-14T04:33:33;172.80;;;61.00;;
57313;SDS011;53202;50.976;18.216;2023-12-14T04:34:34;201.00;;;61.20;;
57313;SDS011;53202;50.976;18.216;2023-12-14T04:35:35;183.30;;;59.00;;
57313;SDS011;53202;50.976;18.216;2023-12-14T04:36:36;175.80;;;59.40;;
57313;SDS011;53202;50.976;18.216;2023-12-14T04:37:38;193.10;;;62.90;;
57313;SDS011;53202;50.976;18.216;2023-12-14T04:38:39;192.80;;;62.30;;
57313;SDS011;53202;50.976;18.216;2023-12-14T04:39:40;167.10;;;61.90;;
57313;SDS011;53202;50.976;18.216;2023-12-14T04:40:41;172.00;;;58.20;;
57313;SDS011;53202;50.976;18.216;2023-12-14T04:41:42;190.60;;;60.00;;
57313;SDS011;53202;50.976;18.216;2023-12-14T04:42:43;190.20;;;62.40;;
57313;SDS011;53202;50.976;18.216;2023-12-14T04:43:44;189.80;;;60.10;;
57313;SDS011;53202;50.976;18.216;2023-12-14T04:44:46;184.50;;;62.10;;
57313;SDS011;53202;50.976;18.216;2023-12-14T04:45:47;200.00;;;63.50;;
57313;SDS011;53202;50.976;18.216;2023-12-14T04:46:48;178.70;;;60.00;;
57313;SDS011;53202;50.976;18.216;2023-12-14T04:47:49;176.30;;;61.50;;
57313;SDS011;53202;50.976;18.216;2023-12-14T04:48:50;190.50;;;63.50;;
57313;SDS011;53202;50.976;18.216;2023-12-14T04:49:51;191.90;;;61.30;;
57313;SDS011;53202;50.976;18.216;2023-12-14T04:50:52;173.40;;;58.20;;
57313;SDS011;53202;50.976;18.216;2023-12-14T04:51:53;193.10;;;62.30;;
57313;SDS011;53202;50.976;18.216;2023-12-14T04:52:54;178.90;;;61.70;;
57313;SDS011;53202;50.976;18.216;2023-12-14T04:53:55;176.30;;;59.10;;
57313;SDS011;53202;50.976;18.216;2023-12-14T04:54:56;177.50;;;62.00;;
57313;SDS011;53202;50.976;18.216;2023-12-14T04:55:57;199.50;;;65.70;;
57313;SDS011;53202;50.976;18.216;2023-12-14T04:56:58;186.80;;;66.90;;
57313;SDS011;53202;50.976;18.216;2023-12-14T04:57:59;195.10;;;67.30;;
57313;SDS011;53202;50.976;18.216;2023-12-14T04:59:00;190.80;;;63.90;;
57313;SDS011;53202;50.976;18.216;2023-12-14T05:00:02;207.70;;;62.90;;
57313;SDS011;53202;50.976;18.216;2023-12-14T05:01:04;177.80;;;61.50;;
57313;SDS011;53202;50.976;18.216;2023-12-14T05:02:05;184.10;;;64.80;;
57313;SDS011;53202;50.976;18.216;2023-12-14T05:03:06;181.60;;;60.00;;
57313;SDS011;53202;50.976;18.216;2023-12-14T05:04:07;187.10;;;61.30;;
57313;SDS011;53202;50.976;18.216;2023-12-14T05:05:08;177.30;;;60.00;;
57313;SDS011;53202;50.976;18.216;2023-12-14T05:06:09;178.30;;;60.50;;
57313;SDS011;53202;50.976;18.216;2023-12-14T05:07:10;173.60;;;59.40;;
57313;SDS011;53202;50.976;18.216;2023-12-14T05:08:11;177.90;;;59.90;;
57313;SDS011;53202;50.976;18.216;2023-12-14T05:09:12;180.20;;;61.20;;
57313;SDS011;53202;50.976;18.216;2023-12-14T05:10:13;174.50;;;63.10;;
57313;SDS011;53202;50.976;18.216;2023-12-14T05:11:15;182.30;;;62.60;;
57313;SDS011;53202;50.976;18.216;2023-12-14T05:12:16;175.60;;;62.00;;
57313;SDS011;53202;50.976;18.216;2023-12-14T05:13:16;182.70;;;61.90;;
57313;SDS011;53202;50.976;18.216;2023-12-14T05:14:17;182.80;;;60.90;;
57313;SDS011;53202;50.976;18.216;2023-12-14T05:15:18;199.90;;;62.30;;
57313;SDS011;53202;50.976;18.216;2023-12-14T05:16:19;180.20;;;60.50;;
57313;SDS011;53202;50.976;18.216;2023-12-14T05:17:20;171.20;;;58.30;;
57313;SDS011;53202;50.976;18.216;2023-12-14T05:18:21;181.90;;;60.50;;
57313;SDS011;53202;50.976;18.216;2023-12-14T05:19:23;185.80;;;62.80;;
57313;SDS011;53202;50.976;18.216;2023-12-14T05:20:24;187.80;;;61.80;;
57313;SDS011;53202;50.976;18.216;2023-12-14T05:21:25;169.80;;;58.00;;
57313;SDS011;53202;50.976;18.216;2023-12-14T05:22:26;190.70;;;61.50;;
57313;SDS011;53202;50.976;18.216;2023-12-14T05:23:28;173.70;;;60.90;;
57313;SDS011;53202;50.976;18.216;2023-12-14T05:24:29;199.80;;;65.30;;
57313;SDS011;53202;50.976;18.216;2023-12-14T05:25:30;160.60;;;59.90;;
57313;SDS011;53202;50.976;18.216;2023-12-14T05:26:31;175.80;;;58.30;;
57313;SDS011;53202;50.976;18.216;2023-12-14T05:27:32;184.30;;;61.20;;
57313;SDS011;53202;50.976;18.216;2023-12-14T05:28:33;188.10;;;60.90;;
57313;SDS011;53202;50.976;18.216;2023-12-14T05:29:34;168.20;;;58.50;;
57313;SDS011;53202;50.976;18.216;2023-12-14T05:30:35;179.00;;;61.80;;
57313;SDS011;53202;50.976;18.216;2023-12-14T05:31:36;193.70;;;61.00;;
57313;SDS011;53202;50.976;18.216;2023-12-14T05:32:38;187.00;;;70.20;;
57313;SDS011;53202;50.976;18.216;2023-12-14T05:33:39;191.00;;;61.20;;
57313;SDS011;53202;50.976;18.216;2023-12-14T05:34:40;193.40;;;62.90;;
57313;SDS011;53202;50.976;18.216;2023-12-14T05:35:41;174.60;;;61.20;;
57313;SDS011;53202;50.976;18.216;2023-12-14T05:36:42;184.20;;;65.00;;
57313;SDS011;53202;50.976;18.216;2023-12-14T05:37:43;174.60;;;62.70;;
57313;SDS011;53202;50.976;18.216;2023-12-14T05:38:44;192.10;;;61.30;;
57313;SDS011;53202;50.976;18.216;2023-12-14T05:39:45;204.50;;;63.80;;
57313;SDS011;53202;50.976;18.216;2023-12-14T05:40:46;182.10;;;61.60;;
57313;SDS011;53202;50.976;18.216;2023-12-14T05:41:47;197.90;;;64.70;;
57313;SDS011;53202;50.976;18.216;2023-12-14T05:42:48;207.50;;;63.80;;
57313;SDS011;53202;50.976;18.216;2023-12-14T05:43:50;188.90;;;60.60;;
57313;SDS011;53202;50.976;18.216;2023-12-14T05:44:51;224.20;;;68.50;;
57313;SDS011;53202;50.976;18.216;2023-12-14T05:45:52;215.80;;;68.60;;
57313;SDS011;53202;50.976;18.216;2023-12-14T05:46:53;187.70;;;63.40;;
57313;SDS011;53202;50.976;18.216;2023-12-14T05:47:54;207.60;;;65.80;;
57313;SDS011;53202;50.976;18.216;2023-12-14T05:48:55;187.50;;;61.50;;
57313;SDS011;53202;50.976;18.216;2023-12-14T05:49:56;212.70;;;71.00;;